sensor_id;sensor_type;location;lat;lon;timestamp;P1;durP1;ratioP1;P2;durP2;ratioP2
49340;SDS011;35209;51.050;13.678;2022-10-16T00:00:41;11.05;;;10.35;;
49340;SDS011;35209;51.050;13.678;2022-10-16T00:05:43;11.43;;;10.73;;
49340;SDS011;35209;51.050;13.678;2022-10-16T00:10:45;11.32;;;10.27;;
49340;SDS011;35209;51.050;13.678;2022-10-16T00:15:47;10.52;;;9.73;;
49340;SDS011;35209;51.050;13.678;2022-10-16T00:20:48;7.95;;;7.45;;
49340;SDS011;35209;51.050;13.678;2022-10-16T00:25:56;7.72;;;7.22;;
49340;SDS011;35209;51.050;13.678;2022-10-16T00:31:02;7.85;;;7.22;;
49340;SDS011;35209;51.050;13.678;2022-10-16T00:36:06;8.30;;;7.60;;
49340;SDS011;35209;51.050;13.678;2022-10-16T00:41:10;9.02;;;8.32;;
49340;SDS011;35209;51.050;13.678;2022-10-16T00:46:20;8.20;;;7.60;;
49340;SDS011;35209;51.050;13.678;2022-10-16T00:51:25;9.80;;;9.10;;
49340;SDS011;35209;51.050;13.678;2022-10-16T00:56:29;8.40;;;7.80;;
49340;SDS011;35209;51.050;13.678;2022-10-16T01:01:31;10.82;;;9.90;;
49340;SDS011;35209;51.050;13.678;2022-10-16T01:06:39;8.77;;;8.18;;
49340;SDS011;35209;51.050;13.678;2022-10-16T01:11:47;8.70;;;8.05;;
49340;SDS011;35209;51.050;13.678;2022-10-16T01:17:10;9.35;;;8.45;;
49340;SDS011;35209;51.050;13.678;2022-10-16T01:22:15;9.73;;;9.13;;
49340;SDS011;35209;51.050;13.678;2022-10-16T01:27:25;8.80;;;8.30;;
49340;SDS011;35209;51.050;13.678;2022-10-16T01:37:38;8.05;;;7.55;;
49340;SDS011;35209;51.050;13.678;2022-10-16T01:42:45;9.88;;;9.07;;
49340;SDS011;35209;51.050;13.678;2022-10-16T01:47:49;8.73;;;8.02;;
49340;SDS011;35209;51.050;13.678;2022-10-16T01:52:53;8.18;;;7.57;;
49340;SDS011;35209;51.050;13.678;2022-10-16T01:57:58;12.20;;;11.35;;
49340;SDS011;35209;51.050;13.678;2022-10-16T02:03:02;10.75;;;10.05;;
49340;SDS011;35209;51.050;13.678;2022-10-16T02:08:05;6.57;;;6.18;;
49340;SDS011;35209;51.050;13.678;2022-10-16T02:18:47;7.18;;;6.57;;
49340;SDS011;35209;51.050;13.678;2022-10-16T02:23:51;7.13;;;6.53;;
49340;SDS011;35209;51.050;13.678;2022-10-16T02:29:13;5.53;;;5.15;;
49340;SDS011;35209;51.050;13.678;2022-10-16T02:34:18;5.77;;;5.37;;
49340;SDS011;35209;51.050;13.678;2022-10-16T02:39:23;6.10;;;5.70;;
49340;SDS011;35209;51.050;13.678;2022-10-16T02:44:25;5.50;;;5.00;;
49340;SDS011;35209;51.050;13.678;2022-10-16T02:49:27;5.80;;;5.28;;
49340;SDS011;35209;51.050;13.678;2022-10-16T02:54:28;5.82;;;5.32;;
49340;SDS011;35209;51.050;13.678;2022-10-16T02:59:30;5.10;;;4.80;;
49340;SDS011;35209;51.050;13.678;2022-10-16T03:04:31;6.13;;;5.70;;
49340;SDS011;35209;51.050;13.678;2022-10-16T03:09:33;6.10;;;5.60;;
49340;SDS011;35209;51.050;13.678;2022-10-16T03:14:35;5.45;;;5.15;;
49340;SDS011;35209;51.050;13.678;2022-10-16T03:19:36;5.60;;;5.22;;
49340;SDS011;35209;51.050;13.678;2022-10-16T03:24:38;5.90;;;5.40;;
49340;SDS011;35209;51.050;13.678;2022-10-16T03:29:39;4.63;;;4.32;;
49340;SDS011;35209;51.050;13.678;2022-10-16T03:34:41;4.47;;;4.18;;
49340;SDS011;35209;51.050;13.678;2022-10-16T03:39:43;4.63;;;4.32;;
49340;SDS011;35209;51.050;13.678;2022-10-16T03:44:44;4.78;;;4.47;;
49340;SDS011;35209;51.050;13.678;2022-10-16T03:49:46;5.32;;;5.00;;
49340;SDS011;35209;51.050;13.678;2022-10-16T03:54:47;5.25;;;4.88;;
49340;SDS011;35209;51.050;13.678;2022-10-16T03:59:49;5.38;;;5.07;;
49340;SDS011;35209;51.050;13.678;2022-10-16T04:04:50;5.05;;;4.65;;
49340;SDS011;35209;51.050;13.678;2022-10-16T04:09:52;4.78;;;4.43;;
49340;SDS011;35209;51.050;13.678;2022-10-16T04:14:54;5.15;;;4.75;;
49340;SDS011;35209;51.050;13.678;2022-10-16T04:19:56;5.45;;;5.05;;
49340;SDS011;35209;51.050;13.678;2022-10-16T04:24:57;4.90;;;4.60;;
49340;SDS011;35209;51.050;13.678;2022-10-16T04:29:59;4.32;;;4.03;;
49340;SDS011;35209;51.050;13.678;2022-10-16T04:35:01;5.20;;;4.80;;
49340;SDS011;35209;51.050;13.678;2022-10-16T04:40:02;3.80;;;3.60;;
49340;SDS011;35209;51.050;13.678;2022-10-16T04:45:05;4.72;;;4.22;;
49340;SDS011;35209;51.050;13.678;2022-10-16T04:50:07;3.75;;;3.45;;
49340;SDS011;35209;51.050;13.678;2022-10-16T04:55:09;4.38;;;3.80;;
49340;SDS011;35209;51.050;13.678;2022-10-16T05:00:11;7.13;;;3.88;;
49340;SDS011;35209;51.050;13.678;2022-10-16T05:05:13;4.43;;;4.07;;
49340;SDS011;35209;51.050;13.678;2022-10-16T05:10:15;4.05;;;3.55;;
49340;SDS011;35209;51.050;13.678;2022-10-16T05:15:17;3.50;;;3.30;;
49340;SDS011;35209;51.050;13.678;2022-10-16T05:20:19;3.65;;;3.33;;
49340;SDS011;35209;51.050;13.678;2022-10-16T05:25:21;4.35;;;3.95;;
49340;SDS011;35209;51.050;13.678;2022-10-16T05:30:23;3.30;;;3.00;;
49340;SDS011;35209;51.050;13.678;2022-10-16T05:35:24;4.10;;;3.80;;
49340;SDS011;35209;51.050;13.678;2022-10-16T05:40:26;3.40;;;3.13;;
49340;SDS011;35209;51.050;13.678;2022-10-16T05:45:27;3.17;;;2.92;;
49340;SDS011;35209;51.050;13.678;2022-10-16T05:50:29;5.53;;;3.63;;
49340;SDS011;35209;51.050;13.678;2022-10-16T05:55:30;3.92;;;3.63;;
49340;SDS011;35209;51.050;13.678;2022-10-16T06:00:32;3.55;;;3.35;;
49340;SDS011;35209;51.050;13.678;2022-10-16T06:05:34;4.20;;;3.97;;
49340;SDS011;35209;51.050;13.678;2022-10-16T06:10:35;9.10;;;4.22;;
49340;SDS011;35209;51.050;13.678;2022-10-16T06:15:37;4.22;;;3.92;;
49340;SDS011;35209;51.050;13.678;2022-10-16T06:20:40;4.95;;;4.55;;
49340;SDS011;35209;51.050;13.678;2022-10-16T06:25:41;5.07;;;4.68;;
49340;SDS011;35209;51.050;13.678;2022-10-16T06:30:43;5.63;;;5.22;;
49340;SDS011;35209;51.050;13.678;2022-10-16T06:35:45;6.68;;;6.07;;
49340;SDS011;35209;51.050;13.678;2022-10-16T06:40:46;5.38;;;4.88;;
49340;SDS011;35209;51.050;13.678;2022-10-16T06:45:50;6.10;;;5.70;;
49340;SDS011;35209;51.050;13.678;2022-10-16T06:50:57;28.85;;;10.68;;
49340;SDS011;35209;51.050;13.678;2022-10-16T06:56:10;53.92;;;15.05;;
49340;SDS011;35209;51.050;13.678;2022-10-16T07:01:13;33.15;;;10.70;;
49340;SDS011;35209;51.050;13.678;2022-10-16T07:06:19;8.23;;;7.03;;
49340;SDS011;35209;51.050;13.678;2022-10-16T07:11:23;7.55;;;6.85;;
49340;SDS011;35209;51.050;13.678;2022-10-16T07:16:28;6.00;;;5.40;;
49340;SDS011;35209;51.050;13.678;2022-10-16T07:21:32;7.97;;;7.47;;
49340;SDS011;35209;51.050;13.678;2022-10-16T07:26:38;6.63;;;6.22;;
49340;SDS011;35209;51.050;13.678;2022-10-16T07:31:40;9.00;;;8.40;;
49340;SDS011;35209;51.050;13.678;2022-10-16T07:36:43;7.90;;;7.32;;
49340;SDS011;35209;51.050;13.678;2022-10-16T07:41:44;8.10;;;7.60;;
49340;SDS011;35209;51.050;13.678;2022-10-16T07:46:46;8.40;;;7.90;;
49340;SDS011;35209;51.050;13.678;2022-10-16T07:51:48;9.02;;;8.32;;
49340;SDS011;35209;51.050;13.678;2022-10-16T07:56:49;8.55;;;7.85;;
49340;SDS011;35209;51.050;13.678;2022-10-16T08:01:51;9.45;;;8.85;;
49340;SDS011;35209;51.050;13.678;2022-10-16T08:06:53;9.05;;;8.45;;
49340;SDS011;35209;51.050;13.678;2022-10-16T08:11:55;8.32;;;7.80;;
49340;SDS011;35209;51.050;13.678;2022-10-16T08:17:02;7.18;;;6.45;;
49340;SDS011;35209;51.050;13.678;2022-10-16T08:22:05;6.72;;;6.32;;
49340;SDS011;35209;51.050;13.678;2022-10-16T08:27:07;6.63;;;6.20;;
49340;SDS011;35209;51.050;13.678;2022-10-16T08:32:10;5.90;;;5.50;;
49340;SDS011;35209;51.050;13.678;2022-10-16T08:37:11;7.38;;;6.85;;
49340;SDS011;35209;51.050;13.678;2022-10-16T08:47:54;7.57;;;7.18;;
49340;SDS011;35209;51.050;13.678;2022-10-16T08:53:11;7.90;;;7.40;;
49340;SDS011;35209;51.050;13.678;2022-10-16T08:58:19;7.60;;;7.15;;
49340;SDS011;35209;51.050;13.678;2022-10-16T09:14:41;5.13;;;4.72;;
49340;SDS011;35209;51.050;13.678;2022-10-16T09:19:56;4.50;;;4.28;;
49340;SDS011;35209;51.050;13.678;2022-10-16T09:25:15;3.70;;;3.50;;
49340;SDS011;35209;51.050;13.678;2022-10-16T09:30:18;2.55;;;1.40;;
49340;SDS011;35209;51.050;13.678;2022-10-16T09:35:22;0.88;;;0.35;;
49340;SDS011;35209;51.050;13.678;2022-10-16T09:40:36;0.40;;;0.40;;
49340;SDS011;35209;51.050;13.678;2022-10-16T09:45:39;0.65;;;0.20;;
49340;SDS011;35209;51.050;13.678;2022-10-16T09:50:41;0.38;;;0.38;;
49340;SDS011;35209;51.050;13.678;2022-10-16T09:55:49;0.85;;;0.30;;
49340;SDS011;35209;51.050;13.678;2022-10-16T10:00:53;0.30;;;0.30;;
49340;SDS011;35209;51.050;13.678;2022-10-16T10:05:56;0.20;;;0.20;;
49340;SDS011;35209;51.050;13.678;2022-10-16T10:11:02;1.38;;;0.28;;
49340;SDS011;35209;51.050;13.678;2022-10-16T10:16:05;0.57;;;0.30;;
49340;SDS011;35209;51.050;13.678;2022-10-16T10:21:12;1.30;;;0.30;;
49340;SDS011;35209;51.050;13.678;2022-10-16T10:26:18;0.30;;;0.20;;
49340;SDS011;35209;51.050;13.678;2022-10-16T10:42:33;0.75;;;0.30;;
49340;SDS011;35209;51.050;13.678;2022-10-16T11:03:13;0.60;;;0.40;;
49340;SDS011;35209;51.050;13.678;2022-10-16T11:13:51;1.38;;;0.40;;
49340;SDS011;35209;51.050;13.678;2022-10-16T11:19:02;0.40;;;0.20;;
49340;SDS011;35209;51.050;13.678;2022-10-16T11:24:15;0.43;;;0.20;;
49340;SDS011;35209;51.050;13.678;2022-10-16T11:29:25;0.63;;;0.20;;
49340;SDS011;35209;51.050;13.678;2022-10-16T11:39:52;0.40;;;0.30;;
49340;SDS011;35209;51.050;13.678;2022-10-16T11:55:37;2.72;;;0.30;;
49340;SDS011;35209;51.050;13.678;2022-10-16T12:00:47;0.65;;;0.65;;
49340;SDS011;35209;51.050;13.678;2022-10-16T12:06:11;0.22;;;0.22;;
49340;SDS011;35209;51.050;13.678;2022-10-16T12:16:29;0.50;;;0.20;;
49340;SDS011;35209;51.050;13.678;2022-10-16T12:21:31;0.30;;;0.20;;
49340;SDS011;35209;51.050;13.678;2022-10-16T12:26:33;0.30;;;0.20;;
49340;SDS011;35209;51.050;13.678;2022-10-16T12:31:43;0.40;;;0.22;;
49340;SDS011;35209;51.050;13.678;2022-10-16T12:37:07;0.30;;;0.30;;
49340;SDS011;35209;51.050;13.678;2022-10-16T12:52:36;0.20;;;0.20;;
49340;SDS011;35209;51.050;13.678;2022-10-16T13:09:52;0.93;;;0.47;;
49340;SDS011;35209;51.050;13.678;2022-10-16T13:30:50;0.25;;;0.25;;
49340;SDS011;35209;51.050;13.678;2022-10-16T13:35:55;0.70;;;0.30;;
49340;SDS011;35209;51.050;13.678;2022-10-16T13:41:12;2.63;;;0.60;;
49340;SDS011;35209;51.050;13.678;2022-10-16T13:46:17;0.77;;;0.40;;
49340;SDS011;35209;51.050;13.678;2022-10-16T13:51:19;0.50;;;0.40;;
49340;SDS011;35209;51.050;13.678;2022-10-16T13:56:21;0.50;;;0.40;;
49340;SDS011;35209;51.050;13.678;2022-10-16T14:01:33;0.65;;;0.45;;
49340;SDS011;35209;51.050;13.678;2022-10-16T14:06:42;0.70;;;0.50;;
49340;SDS011;35209;51.050;13.678;2022-10-16T14:11:50;0.67;;;0.40;;
49340;SDS011;35209;51.050;13.678;2022-10-16T14:17:02;1.20;;;0.60;;
49340;SDS011;35209;51.050;13.678;2022-10-16T14:22:11;1.48;;;0.75;;
49340;SDS011;35209;51.050;13.678;2022-10-16T14:27:36;1.58;;;0.80;;
49340;SDS011;35209;51.050;13.678;2022-10-16T14:32:39;1.48;;;0.70;;
49340;SDS011;35209;51.050;13.678;2022-10-16T14:37:42;0.77;;;0.70;;
49340;SDS011;35209;51.050;13.678;2022-10-16T14:42:45;1.02;;;0.60;;
49340;SDS011;35209;51.050;13.678;2022-10-16T14:47:49;1.95;;;0.60;;
49340;SDS011;35209;51.050;13.678;2022-10-16T14:52:53;0.90;;;0.60;;
49340;SDS011;35209;51.050;13.678;2022-10-16T14:57:54;0.43;;;0.43;;
49340;SDS011;35209;51.050;13.678;2022-10-16T15:03:01;1.45;;;0.68;;
49340;SDS011;35209;51.050;13.678;2022-10-16T15:08:03;2.42;;;2.22;;
49340;SDS011;35209;51.050;13.678;2022-10-16T15:13:05;1.20;;;1.10;;
49340;SDS011;35209;51.050;13.678;2022-10-16T15:18:07;3.65;;;0.80;;
49340;SDS011;35209;51.050;13.678;2022-10-16T15:23:16;1.23;;;0.75;;
49340;SDS011;35209;51.050;13.678;2022-10-16T15:28:23;1.77;;;0.80;;
49340;SDS011;35209;51.050;13.678;2022-10-16T15:33:27;1.95;;;0.80;;
49340;SDS011;35209;51.050;13.678;2022-10-16T15:38:39;1.23;;;0.93;;
49340;SDS011;35209;51.050;13.678;2022-10-16T15:43:40;1.55;;;1.27;;
49340;SDS011;35209;51.050;13.678;2022-10-16T15:48:42;1.00;;;0.80;;
49340;SDS011;35209;51.050;13.678;2022-10-16T15:53:44;1.30;;;1.20;;
49340;SDS011;35209;51.050;13.678;2022-10-16T15:58:47;2.42;;;1.30;;
49340;SDS011;35209;51.050;13.678;2022-10-16T16:03:52;7.05;;;1.40;;
49340;SDS011;35209;51.050;13.678;2022-10-16T16:08:54;2.30;;;1.40;;
49340;SDS011;35209;51.050;13.678;2022-10-16T16:13:56;1.40;;;1.25;;
49340;SDS011;35209;51.050;13.678;2022-10-16T16:18:57;2.15;;;1.30;;
49340;SDS011;35209;51.050;13.678;2022-10-16T16:23:59;1.70;;;1.60;;
49340;SDS011;35209;51.050;13.678;2022-10-16T16:29:02;2.97;;;1.55;;
49340;SDS011;35209;51.050;13.678;2022-10-16T16:34:05;2.33;;;2.13;;
49340;SDS011;35209;51.050;13.678;2022-10-16T16:39:07;2.47;;;2.28;;
49340;SDS011;35209;51.050;13.678;2022-10-16T16:44:09;2.50;;;2.20;;
49340;SDS011;35209;51.050;13.678;2022-10-16T16:49:12;3.05;;;2.75;;
49340;SDS011;35209;51.050;13.678;2022-10-16T16:54:15;4.55;;;3.22;;
49340;SDS011;35209;51.050;13.678;2022-10-16T16:59:18;3.63;;;3.33;;
49340;SDS011;35209;51.050;13.678;2022-10-16T17:04:23;4.38;;;3.97;;
49340;SDS011;35209;51.050;13.678;2022-10-16T17:09:24;4.05;;;3.72;;
49340;SDS011;35209;51.050;13.678;2022-10-16T17:14:26;3.88;;;3.45;;
49340;SDS011;35209;51.050;13.678;2022-10-16T17:19:28;3.08;;;2.88;;
49340;SDS011;35209;51.050;13.678;2022-10-16T17:24:29;3.38;;;3.00;;
49340;SDS011;35209;51.050;13.678;2022-10-16T17:29:31;4.18;;;3.70;;
49340;SDS011;35209;51.050;13.678;2022-10-16T17:34:32;4.32;;;3.85;;
49340;SDS011;35209;51.050;13.678;2022-10-16T17:39:35;4.20;;;3.85;;
49340;SDS011;35209;51.050;13.678;2022-10-16T17:44:37;10.05;;;4.30;;
49340;SDS011;35209;51.050;13.678;2022-10-16T17:49:39;4.10;;;3.78;;
49340;SDS011;35209;51.050;13.678;2022-10-16T17:54:41;4.32;;;3.92;;
49340;SDS011;35209;51.050;13.678;2022-10-16T17:59:42;3.60;;;3.30;;
49340;SDS011;35209;51.050;13.678;2022-10-16T18:04:44;4.25;;;3.85;;
49340;SDS011;35209;51.050;13.678;2022-10-16T18:09:46;4.63;;;4.05;;
49340;SDS011;35209;51.050;13.678;2022-10-16T18:15:08;4.30;;;3.65;;
49340;SDS011;35209;51.050;13.678;2022-10-16T18:20:11;5.40;;;3.20;;
49340;SDS011;35209;51.050;13.678;2022-10-16T18:25:12;3.05;;;2.75;;
49340;SDS011;35209;51.050;13.678;2022-10-16T18:30:14;3.40;;;3.10;;
49340;SDS011;35209;51.050;13.678;2022-10-16T18:35:16;4.13;;;3.22;;
49340;SDS011;35209;51.050;13.678;2022-10-16T18:40:18;3.00;;;2.80;;
49340;SDS011;35209;51.050;13.678;2022-10-16T18:45:19;5.07;;;4.72;;
49340;SDS011;35209;51.050;13.678;2022-10-16T18:50:21;4.70;;;4.40;;
49340;SDS011;35209;51.050;13.678;2022-10-16T18:55:23;3.97;;;3.65;;
49340;SDS011;35209;51.050;13.678;2022-10-16T19:00:31;3.97;;;3.67;;
49340;SDS011;35209;51.050;13.678;2022-10-16T19:05:33;4.57;;;3.90;;
49340;SDS011;35209;51.050;13.678;2022-10-16T19:10:35;4.25;;;3.95;;
49340;SDS011;35209;51.050;13.678;2022-10-16T19:15:41;5.28;;;3.58;;
49340;SDS011;35209;51.050;13.678;2022-10-16T19:20:53;3.93;;;3.17;;
49340;SDS011;35209;51.050;13.678;2022-10-16T19:25:55;3.05;;;2.85;;
49340;SDS011;35209;51.050;13.678;2022-10-16T19:31:00;4.22;;;2.97;;
49340;SDS011;35209;51.050;13.678;2022-10-16T19:41:08;4.07;;;3.60;;
49340;SDS011;35209;51.050;13.678;2022-10-16T19:46:14;4.20;;;3.80;;
49340;SDS011;35209;51.050;13.678;2022-10-16T19:51:18;3.95;;;3.53;;
49340;SDS011;35209;51.050;13.678;2022-10-16T19:56:20;9.57;;;4.18;;
49340;SDS011;35209;51.050;13.678;2022-10-16T20:01:24;4.78;;;4.30;;
49340;SDS011;35209;51.050;13.678;2022-10-16T20:06:27;5.25;;;4.80;;
49340;SDS011;35209;51.050;13.678;2022-10-16T20:11:30;8.88;;;5.47;;
49340;SDS011;35209;51.050;13.678;2022-10-16T20:16:32;5.40;;;4.90;;
49340;SDS011;35209;51.050;13.678;2022-10-16T20:21:34;4.93;;;4.53;;
49340;SDS011;35209;51.050;13.678;2022-10-16T20:26:36;5.53;;;4.80;;
49340;SDS011;35209;51.050;13.678;2022-10-16T20:31:38;6.15;;;5.03;;
49340;SDS011;35209;51.050;13.678;2022-10-16T20:36:40;4.97;;;4.57;;
49340;SDS011;35209;51.050;13.678;2022-10-16T20:41:43;5.20;;;4.45;;
49340;SDS011;35209;51.050;13.678;2022-10-16T20:46:45;5.07;;;4.35;;
49340;SDS011;35209;51.050;13.678;2022-10-16T20:51:46;5.53;;;4.32;;
49340;SDS011;35209;51.050;13.678;2022-10-16T20:56:50;6.72;;;4.85;;
49340;SDS011;35209;51.050;13.678;2022-10-16T21:01:53;4.38;;;4.05;;
49340;SDS011;35209;51.050;13.678;2022-10-16T21:06:55;5.88;;;5.38;;
49340;SDS011;35209;51.050;13.678;2022-10-16T21:11:56;5.07;;;4.68;;
49340;SDS011;35209;51.050;13.678;2022-10-16T21:16:58;4.88;;;4.38;;
49340;SDS011;35209;51.050;13.678;2022-10-16T21:22:01;3.88;;;3.45;;
49340;SDS011;35209;51.050;13.678;2022-10-16T21:27:03;5.00;;;4.50;;
49340;SDS011;35209;51.050;13.678;2022-10-16T21:32:04;4.90;;;4.40;;
49340;SDS011;35209;51.050;13.678;2022-10-16T21:37:06;5.18;;;4.68;;
49340;SDS011;35209;51.050;13.678;2022-10-16T21:42:08;4.20;;;3.90;;
49340;SDS011;35209;51.050;13.678;2022-10-16T21:47:09;5.80;;;5.30;;
49340;SDS011;35209;51.050;13.678;2022-10-16T21:52:11;5.50;;;5.00;;
49340;SDS011;35209;51.050;13.678;2022-10-16T21:57:12;5.00;;;4.60;;
49340;SDS011;35209;51.050;13.678;2022-10-16T22:02:14;6.78;;;6.10;;
49340;SDS011;35209;51.050;13.678;2022-10-16T22:07:16;7.38;;;6.68;;
49340;SDS011;35209;51.050;13.678;2022-10-16T22:12:17;7.38;;;6.78;;
49340;SDS011;35209;51.050;13.678;2022-10-16T22:17:20;8.00;;;7.30;;
49340;SDS011;35209;51.050;13.678;2022-10-16T22:22:21;8.05;;;7.25;;
49340;SDS011;35209;51.050;13.678;2022-10-16T22:27:23;7.00;;;6.40;;
49340;SDS011;35209;51.050;13.678;2022-10-16T22:32:25;6.78;;;6.22;;
49340;SDS011;35209;51.050;13.678;2022-10-16T22:37:27;8.55;;;6.75;;
49340;SDS011;35209;51.050;13.678;2022-10-16T22:42:29;7.03;;;6.47;;
49340;SDS011;35209;51.050;13.678;2022-10-16T22:47:30;7.93;;;7.13;;
49340;SDS011;35209;51.050;13.678;2022-10-16T22:52:32;6.78;;;6.03;;
49340;SDS011;35209;51.050;13.678;2022-10-16T22:57:34;6.40;;;5.80;;
49340;SDS011;35209;51.050;13.678;2022-10-16T23:02:35;5.88;;;5.38;;
49340;SDS011;35209;51.050;13.678;2022-10-16T23:07:37;7.95;;;5.93;;
49340;SDS011;35209;51.050;13.678;2022-10-16T23:12:39;10.27;;;5.63;;
49340;SDS011;35209;51.050;13.678;2022-10-16T23:17:40;5.60;;;5.10;;
49340;SDS011;35209;51.050;13.678;2022-10-16T23:22:42;5.75;;;5.35;;
49340;SDS011;35209;51.050;13.678;2022-10-16T23:27:43;5.78;;;5.22;;
49340;SDS011;35209;51.050;13.678;2022-10-16T23:32:46;6.28;;;4.47;;
49340;SDS011;35209;51.050;13.678;2022-10-16T23:37:47;5.35;;;4.95;;
49340;SDS011;35209;51.050;13.678;2022-10-16T23:42:49;5.47;;;5.07;;
49340;SDS011;35209;51.050;13.678;2022-10-16T23:47:51;4.93;;;4.55;;
49340;SDS011;35209;51.050;13.678;2022-10-16T23:52:52;6.03;;;5.13;;
49340;SDS011;35209;51.050;13.678;2022-10-16T23:57:54;4.90;;;4.43;;
